»·PEaware :: N413C KSBP-KSBA

N413C :: KSBP-KSBA

FLIGHT INFORMATION

Flight Status: Arrived
Operator: Privately registered:
United States
More flights under this callsign
Pilot: Alec D. (17934)
Aircraft: PIPER PA-23-235/250 AZTEC
(PA27)
More flights by this aircraft type
Origin: KSBP San Luis Co Regl
United States
Destination: KSBA Santa Barbara Mun
United States
More flights between these airports :: More routes between these airports
Route: CREPE3 MQO V27 GVO
File this flight plan on PilotEdge
Remarks:
Altitude:
(Current/Filed)
7,000ft
Speed:
(Current/Filed)
170kts
Departed: 12-Jul-18 07:55 AM
Arrived: 12-Jul-18 08:40 AM
Distance/Time
Traveled:
63nm/0:45
Distance/Time
To Go:
Arrived

Flight Plot

Page will automatically refresh every two minutes.


Map Options




Map Legend


Flown Route
Filed Route
Departure Airport
Arrival Airport
Navaid (VOR, NDB)
Fix

Horizontal Profiles

Position Reports

Time Latitude Longitude Heading Altitude Ground
Speed
12-Jul-18 07:21 35.238276 -120.639170 267 215ft 0kts
12-Jul-18 07:22 35.238276 -120.639170 267 215ft 0kts
12-Jul-18 07:23 35.238276 -120.639170 267 215ft 0kts
12-Jul-18 07:24 35.238276 -120.639170 267 215ft 0kts
12-Jul-18 07:25 35.238276 -120.639174 268 215ft 0kts
12-Jul-18 07:26 35.238275 -120.639177 268 215ft 0kts
12-Jul-18 07:27 35.238275 -120.639182 268 215ft 0kts
12-Jul-18 07:28 35.238275 -120.639187 268 215ft 0kts
12-Jul-18 07:29 35.238275 -120.639192 268 215ft 0kts
12-Jul-18 07:30 35.238275 -120.639196 268 215ft 0kts
12-Jul-18 07:31 35.238275 -120.639201 268 215ft 0kts
12-Jul-18 07:32 35.238275 -120.639206 268 215ft 0kts
12-Jul-18 07:33 35.238275 -120.639211 268 215ft 0kts
12-Jul-18 07:34 35.238275 -120.639215 268 215ft 0kts
12-Jul-18 07:35 35.238275 -120.639220 268 215ft 0kts
12-Jul-18 07:36 35.238274 -120.639224 268 215ft 0kts
12-Jul-18 07:37 35.238274 -120.639229 268 215ft 0kts
12-Jul-18 07:38 35.238274 -120.639233 268 215ft 0kts
12-Jul-18 07:39 35.238274 -120.639238 268 215ft 0kts
12-Jul-18 07:40 35.238274 -120.639243 268 215ft 0kts
12-Jul-18 07:41 35.238274 -120.639247 268 215ft 0kts
12-Jul-18 07:42 35.238274 -120.639252 268 215ft 0kts
12-Jul-18 07:43 35.238085 -120.639362 180 215ft 7kts
12-Jul-18 07:44 35.235766 -120.636246 124 215ft 19kts
12-Jul-18 07:45 35.233223 -120.631884 257 215ft 2kts
12-Jul-18 07:46 35.233220 -120.631907 262 215ft 0kts
12-Jul-18 07:47 35.233220 -120.631912 262 215ft 0kts
12-Jul-18 07:48 35.233219 -120.631921 262 215ft 0kts
12-Jul-18 07:49 35.233216 -120.631945 263 215ft 0kts
12-Jul-18 07:50 35.233215 -120.631959 264 215ft 0kts
12-Jul-18 07:51 35.233213 -120.631980 262 215ft 0kts
12-Jul-18 07:52 35.233212 -120.631990 261 215ft 0kts
12-Jul-18 07:53 35.233212 -120.631994 261 215ft 0kts
12-Jul-18 07:54 35.233205 -120.632420 267 215ft 0kts
12-Jul-18 07:55 35.232809 -120.633060 294 215ft 8kts
12-Jul-18 07:56 35.242870 -120.648639 311 602ft 119kts
12-Jul-18 07:57 35.262546 -120.682413 299 2085ft 120kts
12-Jul-18 07:58 35.278571 -120.718038 299 3461ft 118kts
12-Jul-18 07:59 35.298204 -120.752379 301 4672ft 127kts
12-Jul-18 08:00 35.318363 -120.788281 304 5671ft 129kts
12-Jul-18 08:01 35.339998 -120.823912 303 6545ft 130kts
12-Jul-18 08:02 35.344952 -120.860057 194 7000ft 137kts
12-Jul-18 08:03 35.313751 -120.831731 138 6985ft 151kts
12-Jul-18 08:04 35.282054 -120.794728 137 6987ft 165kts
12-Jul-18 08:05 35.248363 -120.755668 143 6983ft 167kts
12-Jul-18 08:06 35.211198 -120.721039 143 6985ft 168kts
12-Jul-18 08:07 35.173953 -120.686157 143 6993ft 167kts
12-Jul-18 08:08 35.137024 -120.651670 143 7013ft 168kts
12-Jul-18 08:09 35.099325 -120.616491 143 7021ft 176kts
12-Jul-18 08:10 35.060529 -120.580304 143 7011ft 175kts
12-Jul-18 08:11 35.022769 -120.545120 143 7010ft 168kts
12-Jul-18 08:12 34.985437 -120.510369 143 7011ft 168kts
12-Jul-18 08:13 34.948344 -120.475880 143 7013ft 167kts
12-Jul-18 08:14 34.911237 -120.441438 143 7011ft 167kts
12-Jul-18 08:15 34.873804 -120.406751 143 7017ft 172kts
12-Jul-18 08:16 34.835976 -120.371716 142 7013ft 168kts
12-Jul-18 08:17 34.798708 -120.337230 142 7012ft 168kts
12-Jul-18 08:18 34.761545 -120.302855 142 7016ft 167kts
12-Jul-18 08:19 34.724427 -120.268638 142 7013ft 167kts
12-Jul-18 08:20 34.687243 -120.234363 142 7014ft 167kts
12-Jul-18 08:21 34.650130 -120.200189 142 7012ft 167kts
12-Jul-18 08:22 34.612951 -120.165995 142 7012ft 167kts
12-Jul-18 08:23 34.576044 -120.132091 142 7012ft 166kts
12-Jul-18 08:24 34.538977 -120.098103 141 6980ft 168kts
12-Jul-18 08:25 34.508854 -120.056162 122 7009ft 166kts
12-Jul-18 08:26 34.484039 -120.008703 122 7007ft 167kts
12-Jul-18 08:27 34.459071 -119.961293 122 7000ft 167kts
12-Jul-18 08:28 34.433958 -119.913829 122 6995ft 167kts
12-Jul-18 08:29 34.408886 -119.866384 122 6895ft 168kts
12-Jul-18 08:30 34.384173 -119.819593 122 6464ft 163kts
12-Jul-18 08:31 34.359794 -119.773223 122 5935ft 163kts
12-Jul-18 08:32 34.335512 -119.726838 122 5390ft 163kts
12-Jul-18 08:33 34.311461 -119.680636 121 4812ft 160kts
12-Jul-18 08:34 34.314277 -119.636513 27 4227ft 166kts
12-Jul-18 08:35 34.348215 -119.640930 306 3744ft 167kts
12-Jul-18 08:36 34.373947 -119.688369 302 3038ft 172kts
12-Jul-18 08:37 34.399313 -119.738937 300 1672ft 164kts
12-Jul-18 08:38 34.423891 -119.778109 301 1013ft 125kts
12-Jul-18 08:39 34.428529 -119.811588 265 431ft 91kts
12-Jul-18 08:40 34.427853 -119.838568 267 14ft 57kts
12-Jul-18 08:41 34.427035 -119.846784 175 13ft 0kts
12-Jul-18 08:42 34.426683 -119.845233 88 13ft 17kts
12-Jul-18 08:43 34.426807 -119.839014 89 13ft 17kts
12-Jul-18 08:44 34.423615 -119.836503 166 13ft 10kts
12-Jul-18 08:45 34.423376 -119.835699 73 13ft 0kts
12-Jul-18 08:46 34.423376 -119.835699 73 13ft 0kts
12-Jul-18 08:47 34.423376 -119.835699 73 13ft 0kts
12-Jul-18 08:48 34.423376 -119.835699 73 13ft 0kts
12-Jul-18 08:49 34.423376 -119.835699 73 13ft 0kts
12-Jul-18 08:50 34.423376 -119.835699 73 13ft 0kts
12-Jul-18 08:51 34.423376 -119.835699 73 13ft 0kts
12-Jul-18 08:52 34.423376 -119.835699 73 13ft 0kts
12-Jul-18 08:53 34.423376 -119.835699 73 13ft 0kts

Navigation Log

Ident Type
Flight plan parsing failed, navigation log unavailable